Aérodrome :
LOGIN :

S'inscrire | Disclaimer

   EN    FR    IT 

 










Légende :    VFR   VFR Marginal   IFR   IFR Intensif   IFR Très Intensif
Visi : 
Plafond : 
>= 8 km
>= 3000ft
5 à 8 km
1000 à 3000 ft
1500m à 5 km
500 à 1000 ft
800 à 1500m
200 à 500 ft
< 800m
< 200 ft
Symboles :   Orages  Brouillard  Fortes neiges  Fortes précipitations  Vent > 20 kt
SIGMETs :   Divers  Orages  Givrage  Turbulence  Onde Orograph.  Cendres Volcan.






- Altitude de l'aérodrome : 735 ft
- Code IATA : EGO


UUOB - Belgorod

DERNIER METAR :
  • 260930Z 19007MPS 9999 OVC009 04/01 Q1001 R11/190050 NOSIG

METARs EXPIRÉS :
  • 260900Z 18006MPS 9999 OVC008 03/01 Q1002 R11/190050 NOSIG
  • 260830Z 18004MPS 9999 OVC009 03/01 Q1002 R11/190050 NOSIG
  • 260800Z 18005MPS 9999 OVC006 02/01 Q1002 R11/190050 NOSIG
  • 260730Z 18006MPS 9000 OVC005 02/01 Q1002 R11/190050 NOSIG
  • 260700Z 19005MPS 9000 OVC005 02/01 Q1003 R11/190050 NOSIG

TAF TAF UUOB
Valide du 26 à 09h jusqu'au 26 à 18h UTC


260800Z 2609/2618 20008G13MPS 5000 BR BKN011
TEMPO 2612/2618 2000 BR BKN004



MET'MAP, la Météo Aéronautique d'un coup d'oeil ! - Copyright ORBIFLY Décembre 2007 - Disclaimer

ORBIFLY MET'MAP TEAM :

Programmation & Développement : Alexandra Zaïnal
Sur une idée originale de : Baudouin d'Aumeries
Assistance à la programmation : Marc-Olivier Méhu
Soutien technique & logistique : Manuel Goepfert

Contact : metmap@orbifly.com




SOURCES & CREDITS :

   NOAA